sensor_id;sensor_type;location;lat;lon;timestamp;pressure;altitude;pressure_sealevel;temperature;humidity
77431;BME280;66498;48.564;19.272;2023-05-07T00:00:37;97619.56;;;11.16;95.59
77431;BME280;66498;48.564;19.272;2023-05-07T00:03:10;97623.44;;;11.13;95.50
77431;BME280;66498;48.564;19.272;2023-05-07T00:05:38;97617.19;;;11.15;95.85
77431;BME280;66498;48.564;19.272;2023-05-07T00:08:05;97621.06;;;11.12;95.77
77431;BME280;66498;48.564;19.272;2023-05-07T00:10:30;97621.22;;;11.29;95.04
77431;BME280;66498;48.564;19.272;2023-05-07T00:12:56;97623.59;;;11.19;95.95
77431;BME280;66498;48.564;19.272;2023-05-07T00:15:22;97627.31;;;10.81;97.46
77431;BME280;66498;48.564;19.272;2023-05-07T00:17:47;97621.47;;;10.60;98.74
77431;BME280;66498;48.564;19.272;2023-05-07T00:20:12;97619.41;;;10.62;98.11
77431;BME280;66498;48.564;19.272;2023-05-07T00:22:39;97620.06;;;10.76;98.40
77431;BME280;66498;48.564;19.272;2023-05-07T00:25:05;97623.53;;;10.77;98.19
77431;BME280;66498;48.564;19.272;2023-05-07T00:27:31;97624.66;;;10.62;98.85
77431;BME280;66498;48.564;19.272;2023-05-07T00:29:56;97618.84;;;10.60;98.49
77431;BME280;66498;48.564;19.272;2023-05-07T00:32:28;97612.34;;;10.63;98.40
77431;BME280;66498;48.564;19.272;2023-05-07T00:34:53;97613.28;;;10.69;98.35
77431;BME280;66498;48.564;19.272;2023-05-07T00:37:20;97617.00;;;10.79;98.28
77431;BME280;66498;48.564;19.272;2023-05-07T00:39:49;97611.63;;;10.74;98.51
77431;BME280;66498;48.564;19.272;2023-05-07T00:42:42;97617.78;;;10.80;98.62
77431;BME280;66498;48.564;19.272;2023-05-07T00:45:15;97610.88;;;10.85;97.87
77431;BME280;66498;48.564;19.272;2023-05-07T00:47:46;97614.25;;;10.74;97.65
77431;BME280;66498;48.564;19.272;2023-05-07T00:50:18;97614.69;;;10.71;98.11
77431;BME280;66498;48.564;19.272;2023-05-07T00:52:44;97611.47;;;10.51;98.81
77431;BME280;66498;48.564;19.272;2023-05-07T00:55:10;97616.78;;;10.62;98.51
77431;BME280;66498;48.564;19.272;2023-05-07T00:57:42;97612.25;;;10.70;98.35
77431;BME280;66498;48.564;19.272;2023-05-07T01:00:09;97611.75;;;10.79;97.52
77431;BME280;66498;48.564;19.272;2023-05-07T01:02:37;97607.97;;;10.75;97.93
77431;BME280;66498;48.564;19.272;2023-05-07T01:05:13;97606.38;;;10.74;98.46
77431;BME280;66498;48.564;19.272;2023-05-07T01:08:01;97608.63;;;10.71;98.08
77431;BME280;66498;48.564;19.272;2023-05-07T01:10:30;97612.03;;;10.53;98.62
77431;BME280;66498;48.564;19.272;2023-05-07T01:12:57;97615.94;;;10.50;99.09
77431;BME280;66498;48.564;19.272;2023-05-07T01:15:23;97606.44;;;10.49;98.40
77431;BME280;66498;48.564;19.272;2023-05-07T01:17:49;97611.25;;;10.52;98.23
77431;BME280;66498;48.564;19.272;2023-05-07T01:20:17;97609.34;;;10.41;98.68
77431;BME280;66498;48.564;19.272;2023-05-07T01:22:44;97609.28;;;10.48;98.79
77431;BME280;66498;48.564;19.272;2023-05-07T01:25:10;97615.19;;;10.43;98.57
77431;BME280;66498;48.564;19.272;2023-05-07T01:27:35;97606.31;;;10.44;98.32
77431;BME280;66498;48.564;19.272;2023-05-07T01:30:07;97609.97;;;10.43;99.56
77431;BME280;66498;48.564;19.272;2023-05-07T01:32:42;97612.88;;;10.53;99.51
77431;BME280;66498;48.564;19.272;2023-05-07T01:35:11;97606.38;;;10.56;99.57
77431;BME280;66498;48.564;19.272;2023-05-07T01:37:39;97611.09;;;10.65;99.44
77431;BME280;66498;48.564;19.272;2023-05-07T01:40:05;97608.03;;;10.87;97.15
77431;BME280;66498;48.564;19.272;2023-05-07T01:42:32;97609.47;;;10.83;96.45
77431;BME280;66498;48.564;19.272;2023-05-07T01:44:59;97605.69;;;10.79;96.34
77431;BME280;66498;48.564;19.272;2023-05-07T01:47:25;97605.56;;;10.55;97.29
77431;BME280;66498;48.564;19.272;2023-05-07T01:49:52;97611.47;;;10.51;98.03
77431;BME280;66498;48.564;19.272;2023-05-07T01:52:19;97596.97;;;10.48;98.10
77431;BME280;66498;48.564;19.272;2023-05-07T01:54:45;97604.28;;;10.46;98.73
77431;BME280;66498;48.564;19.272;2023-05-07T01:57:22;97600.69;;;10.59;98.14
77431;BME280;66498;48.564;19.272;2023-05-07T01:59:50;97598.19;;;10.46;98.10
77431;BME280;66498;48.564;19.272;2023-05-07T02:02:17;97601.66;;;10.46;97.96
77431;BME280;66498;48.564;19.272;2023-05-07T02:04:43;97597.28;;;10.40;97.91
77431;BME280;66498;48.564;19.272;2023-05-07T02:07:08;97600.88;;;10.39;98.61
77431;BME280;66498;48.564;19.272;2023-05-07T02:09:34;97601.22;;;10.24;98.81
77431;BME280;66498;48.564;19.272;2023-05-07T02:12:00;97601.19;;;10.31;98.86
77431;BME280;66498;48.564;19.272;2023-05-07T02:14:25;97601.94;;;10.13;99.00
77431;BME280;66498;48.564;19.272;2023-05-07T02:16:51;97596.91;;;10.11;99.48
77431;BME280;66498;48.564;19.272;2023-05-07T02:19:16;97597.88;;;10.17;98.85
77431;BME280;66498;48.564;19.272;2023-05-07T02:21:42;97599.50;;;9.93;99.58
77431;BME280;66498;48.564;19.272;2023-05-07T02:24:07;97595.06;;;9.93;99.52
77431;BME280;66498;48.564;19.272;2023-05-07T02:26:33;97591.16;;;9.78;100.00
77431;BME280;66498;48.564;19.272;2023-05-07T02:28:59;97589.41;;;9.71;100.00
77431;BME280;66498;48.564;19.272;2023-05-07T02:31:25;97595.06;;;9.68;100.00
77431;BME280;66498;48.564;19.272;2023-05-07T02:33:50;97590.63;;;9.69;100.00
77431;BME280;66498;48.564;19.272;2023-05-07T02:36:16;97581.38;;;9.66;100.00
77431;BME280;66498;48.564;19.272;2023-05-07T02:38:41;97589.66;;;9.63;100.00
77431;BME280;66498;48.564;19.272;2023-05-07T02:41:07;97589.28;;;9.60;100.00
77431;BME280;66498;48.564;19.272;2023-05-07T02:43:32;97587.88;;;9.57;100.00
77431;BME280;66498;48.564;19.272;2023-05-07T02:46:05;97592.16;;;9.52;100.00
77431;BME280;66498;48.564;19.272;2023-05-07T02:48:31;97588.56;;;9.46;100.00
77431;BME280;66498;48.564;19.272;2023-05-07T02:50:58;97594.00;;;9.51;100.00
77431;BME280;66498;48.564;19.272;2023-05-07T02:53:24;97594.88;;;9.38;100.00
77431;BME280;66498;48.564;19.272;2023-05-07T02:55:52;97593.22;;;9.44;100.00
77431;BME280;66498;48.564;19.272;2023-05-07T02:58:18;97595.50;;;9.34;100.00
77431;BME280;66498;48.564;19.272;2023-05-07T03:00:43;97603.53;;;9.39;100.00
77431;BME280;66498;48.564;19.272;2023-05-07T03:03:09;97603.16;;;9.35;100.00
77431;BME280;66498;48.564;19.272;2023-05-07T03:05:34;97597.22;;;9.46;100.00
77431;BME280;66498;48.564;19.272;2023-05-07T03:08:00;97597.84;;;9.48;100.00
77431;BME280;66498;48.564;19.272;2023-05-07T03:10:25;97610.34;;;9.46;100.00
77431;BME280;66498;48.564;19.272;2023-05-07T03:12:51;97611.56;;;9.44;100.00
77431;BME280;66498;48.564;19.272;2023-05-07T03:15:16;97622.81;;;9.51;100.00
77431;BME280;66498;48.564;19.272;2023-05-07T03:17:42;97611.72;;;9.49;100.00
77431;BME280;66498;48.564;19.272;2023-05-07T03:20:07;97623.84;;;9.43;100.00
77431;BME280;66498;48.564;19.272;2023-05-07T03:22:34;97619.97;;;9.53;100.00
77431;BME280;66498;48.564;19.272;2023-05-07T03:25:00;97621.41;;;9.48;100.00
77431;BME280;66498;48.564;19.272;2023-05-07T03:27:25;97630.88;;;9.50;100.00
77431;BME280;66498;48.564;19.272;2023-05-07T03:29:51;97629.75;;;9.64;100.00
77431;BME280;66498;48.564;19.272;2023-05-07T03:32:16;97624.78;;;9.56;100.00
77431;BME280;66498;48.564;19.272;2023-05-07T03:34:42;97633.06;;;9.53;100.00
77431;BME280;66498;48.564;19.272;2023-05-07T03:37:07;97634.84;;;9.59;100.00
77431;BME280;66498;48.564;19.272;2023-05-07T03:39:33;97637.09;;;9.55;100.00
77431;BME280;66498;48.564;19.272;2023-05-07T03:41:58;97638.13;;;9.47;100.00
77431;BME280;66498;48.564;19.272;2023-05-07T03:44:24;97639.78;;;9.42;100.00
77431;BME280;66498;48.564;19.272;2023-05-07T03:46:49;97646.47;;;9.38;100.00
77431;BME280;66498;48.564;19.272;2023-05-07T03:49:15;97639.19;;;9.40;99.93
77431;BME280;66498;48.564;19.272;2023-05-07T03:51:40;97648.06;;;9.39;100.00
77431;BME280;66498;48.564;19.272;2023-05-07T03:54:07;97651.88;;;9.43;100.00
77431;BME280;66498;48.564;19.272;2023-05-07T03:56:33;97654.25;;;9.51;100.00
77431;BME280;66498;48.564;19.272;2023-05-07T03:58:58;97647.84;;;9.40;100.00
77431;BME280;66498;48.564;19.272;2023-05-07T04:01:24;97652.25;;;9.46;100.00
77431;BME280;66498;48.564;19.272;2023-05-07T04:03:49;97650.00;;;9.50;100.00
77431;BME280;66498;48.564;19.272;2023-05-07T04:06:16;97648.22;;;9.44;100.00
77431;BME280;66498;48.564;19.272;2023-05-07T04:08:42;97658.34;;;9.40;100.00
77431;BME280;66498;48.564;19.272;2023-05-07T04:11:07;97657.00;;;9.31;100.00
77431;BME280;66498;48.564;19.272;2023-05-07T04:13:33;97652.94;;;9.35;100.00
77431;BME280;66498;48.564;19.272;2023-05-07T04:16:00;97654.84;;;9.53;99.70
77431;BME280;66498;48.564;19.272;2023-05-07T04:18:26;97652.25;;;9.46;99.46
77431;BME280;66498;48.564;19.272;2023-05-07T04:20:51;97661.59;;;9.36;99.39
77431;BME280;66498;48.564;19.272;2023-05-07T04:23:17;97659.69;;;9.50;99.37
77431;BME280;66498;48.564;19.272;2023-05-07T04:25:42;97665.28;;;9.60;98.89
77431;BME280;66498;48.564;19.272;2023-05-07T04:28:08;97664.63;;;9.64;98.78
77431;BME280;66498;48.564;19.272;2023-05-07T04:30:33;97674.13;;;9.65;98.63
77431;BME280;66498;48.564;19.272;2023-05-07T04:32:59;97673.06;;;9.73;97.79
77431;BME280;66498;48.564;19.272;2023-05-07T04:35:24;97671.16;;;9.87;97.59
77431;BME280;66498;48.564;19.272;2023-05-07T04:37:50;97670.78;;;9.83;98.20
77431;BME280;66498;48.564;19.272;2023-05-07T04:40:16;97674.19;;;9.84;98.40
77431;BME280;66498;48.564;19.272;2023-05-07T04:42:41;97678.16;;;9.93;98.50
77431;BME280;66498;48.564;19.272;2023-05-07T04:45:07;97668.81;;;10.04;98.50
77431;BME280;66498;48.564;19.272;2023-05-07T04:47:35;97678.09;;;10.25;96.42
77431;BME280;66498;48.564;19.272;2023-05-07T04:50:02;97681.53;;;10.00;96.52
77431;BME280;66498;48.564;19.272;2023-05-07T04:52:28;97684.16;;;10.00;97.25
77431;BME280;66498;48.564;19.272;2023-05-07T04:54:53;97684.53;;;9.79;97.60
77431;BME280;66498;48.564;19.272;2023-05-07T04:57:18;97694.78;;;9.80;99.27
77431;BME280;66498;48.564;19.272;2023-05-07T04:59:44;97692.53;;;9.84;98.93
77431;BME280;66498;48.564;19.272;2023-05-07T05:02:10;97689.78;;;9.79;99.28
77431;BME280;66498;48.564;19.272;2023-05-07T05:04:36;97688.13;;;9.78;99.10
77431;BME280;66498;48.564;19.272;2023-05-07T05:07:02;97691.56;;;9.78;99.50
77431;BME280;66498;48.564;19.272;2023-05-07T05:09:29;97693.53;;;9.89;98.97
77431;BME280;66498;48.564;19.272;2023-05-07T05:11:55;97695.50;;;9.94;98.89
77431;BME280;66498;48.564;19.272;2023-05-07T05:14:21;97705.88;;;9.82;98.79
77431;BME280;66498;48.564;19.272;2023-05-07T05:16:46;97703.88;;;9.78;99.04
77431;BME280;66498;48.564;19.272;2023-05-07T05:19:12;97703.44;;;9.81;99.52
77431;BME280;66498;48.564;19.272;2023-05-07T05:21:37;97701.28;;;10.03;99.13
77431;BME280;66498;48.564;19.272;2023-05-07T05:24:03;97702.78;;;9.92;99.23
77431;BME280;66498;48.564;19.272;2023-05-07T05:26:28;97714.66;;;9.94;98.70
77431;BME280;66498;48.564;19.272;2023-05-07T05:28:54;97709.88;;;9.85;99.59
77431;BME280;66498;48.564;19.272;2023-05-07T05:31:19;97708.22;;;9.90;99.37
77431;BME280;66498;48.564;19.272;2023-05-07T05:33:45;97698.41;;;10.11;99.54
77431;BME280;66498;48.564;19.272;2023-05-07T05:36:11;97701.56;;;10.19;99.63
77431;BME280;66498;48.564;19.272;2023-05-07T05:38:39;97702.50;;;10.32;99.50
77431;BME280;66498;48.564;19.272;2023-05-07T05:41:04;97698.41;;;10.36;98.13
77431;BME280;66498;48.564;19.272;2023-05-07T05:43:30;97707.72;;;10.57;96.62
77431;BME280;66498;48.564;19.272;2023-05-07T05:45:56;97708.97;;;10.54;97.85
77431;BME280;66498;48.564;19.272;2023-05-07T05:48:23;97696.81;;;10.78;94.61
77431;BME280;66498;48.564;19.272;2023-05-07T05:50:48;97702.00;;;10.67;94.57
77431;BME280;66498;48.564;19.272;2023-05-07T05:53:14;97703.22;;;10.64;95.55
77431;BME280;66498;48.564;19.272;2023-05-07T05:55:41;97703.66;;;10.61;96.65
77431;BME280;66498;48.564;19.272;2023-05-07T05:58:07;97701.81;;;10.61;96.47
77431;BME280;66498;48.564;19.272;2023-05-07T06:00:33;97704.38;;;10.50;96.51
77431;BME280;66498;48.564;19.272;2023-05-07T06:02:59;97706.84;;;10.63;95.79
77431;BME280;66498;48.564;19.272;2023-05-07T06:05:24;97697.06;;;10.52;97.88
77431;BME280;66498;48.564;19.272;2023-05-07T06:07:50;97698.53;;;10.48;97.94
77431;BME280;66498;48.564;19.272;2023-05-07T06:10:16;97702.06;;;10.60;97.39
77431;BME280;66498;48.564;19.272;2023-05-07T06:12:41;97707.00;;;10.50;96.75
77431;BME280;66498;48.564;19.272;2023-05-07T06:15:07;97699.66;;;10.77;95.49
77431;BME280;66498;48.564;19.272;2023-05-07T06:17:32;97699.56;;;10.65;96.05
77431;BME280;66498;48.564;19.272;2023-05-07T06:19:59;97706.09;;;10.56;95.91
77431;BME280;66498;48.564;19.272;2023-05-07T06:22:24;97712.00;;;10.95;94.53
77431;BME280;66498;48.564;19.272;2023-05-07T06:24:50;97712.84;;;10.70;96.01
77431;BME280;66498;48.564;19.272;2023-05-07T06:27:15;97716.56;;;10.37;97.48
77431;BME280;66498;48.564;19.272;2023-05-07T06:29:41;97714.56;;;10.39;98.01
77431;BME280;66498;48.564;19.272;2023-05-07T06:32:11;97712.75;;;10.58;97.87
77431;BME280;66498;48.564;19.272;2023-05-07T06:34:37;97712.56;;;10.60;96.95
77431;BME280;66498;48.564;19.272;2023-05-07T06:37:02;97713.66;;;10.89;95.67
77431;BME280;66498;48.564;19.272;2023-05-07T06:39:28;97705.41;;;10.67;94.87
77431;BME280;66498;48.564;19.272;2023-05-07T06:41:53;97708.19;;;11.09;95.41
77431;BME280;66498;48.564;19.272;2023-05-07T06:44:19;97710.56;;;11.10;95.04
77431;BME280;66498;48.564;19.272;2023-05-07T06:46:46;97715.47;;;11.25;94.90
77431;BME280;66498;48.564;19.272;2023-05-07T06:49:13;97715.03;;;11.10;93.51
77431;BME280;66498;48.564;19.272;2023-05-07T06:51:39;97715.25;;;11.27;93.96
77431;BME280;66498;48.564;19.272;2023-05-07T06:54:04;97708.88;;;11.65;92.09
77431;BME280;66498;48.564;19.272;2023-05-07T06:56:30;97704.44;;;11.35;93.35
77431;BME280;66498;48.564;19.272;2023-05-07T06:58:56;97707.03;;;11.53;93.69
77431;BME280;66498;48.564;19.272;2023-05-07T07:01:22;97701.91;;;11.58;93.20
77431;BME280;66498;48.564;19.272;2023-05-07T07:03:47;97702.13;;;11.57;92.99
77431;BME280;66498;48.564;19.272;2023-05-07T07:06:13;97710.53;;;11.77;92.45
77431;BME280;66498;48.564;19.272;2023-05-07T07:08:39;97706.97;;;12.02;90.73
77431;BME280;66498;48.564;19.272;2023-05-07T07:11:05;97709.06;;;12.23;89.49
77431;BME280;66498;48.564;19.272;2023-05-07T07:13:32;97709.28;;;12.22;89.37
77431;BME280;66498;48.564;19.272;2023-05-07T07:15:58;97706.31;;;12.18;87.91
77431;BME280;66498;48.564;19.272;2023-05-07T07:18:23;97704.84;;;12.58;85.71
77431;BME280;66498;48.564;19.272;2023-05-07T07:20:49;97702.69;;;12.54;86.75
77431;BME280;66498;48.564;19.272;2023-05-07T07:23:14;97704.09;;;13.09;84.69
77431;BME280;66498;48.564;19.272;2023-05-07T07:25:40;97701.53;;;13.14;85.44
77431;BME280;66498;48.564;19.272;2023-05-07T07:28:06;97693.56;;;12.97;84.21
77431;BME280;66498;48.564;19.272;2023-05-07T07:30:31;97695.69;;;12.72;86.08
77431;BME280;66498;48.564;19.272;2023-05-07T07:32:57;97702.53;;;12.85;82.88
77431;BME280;66498;48.564;19.272;2023-05-07T07:35:34;97693.97;;;13.30;82.35
77431;BME280;66498;48.564;19.272;2023-05-07T07:38:00;97695.47;;;13.83;78.46
77431;BME280;66498;48.564;19.272;2023-05-07T07:40:26;97698.75;;;13.90;76.60
77431;BME280;66498;48.564;19.272;2023-05-07T07:42:53;97695.97;;;14.13;78.42
77431;BME280;66498;48.564;19.272;2023-05-07T07:45:21;97693.19;;;14.20;78.12
77431;BME280;66498;48.564;19.272;2023-05-07T07:47:47;97693.59;;;14.84;76.03
77431;BME280;66498;48.564;19.272;2023-05-07T07:50:13;97689.28;;;15.00;76.92
77431;BME280;66498;48.564;19.272;2023-05-07T07:52:38;97689.00;;;14.97;77.80
77431;BME280;66498;48.564;19.272;2023-05-07T07:55:04;97686.38;;;14.58;78.12
77431;BME280;66498;48.564;19.272;2023-05-07T08:24:32;97679.31;;;16.85;67.88
77431;BME280;66498;48.564;19.272;2023-05-07T08:26:58;97679.63;;;16.99;70.62
77431;BME280;66498;48.564;19.272;2023-05-07T08:29:23;97673.09;;;17.32;65.41
77431;BME280;66498;48.564;19.272;2023-05-07T08:31:49;97676.38;;;17.65;65.43
77431;BME280;66498;48.564;19.272;2023-05-07T08:34:15;97675.41;;;17.03;65.43
77431;BME280;66498;48.564;19.272;2023-05-07T08:36:40;97673.09;;;17.27;64.79
77431;BME280;66498;48.564;19.272;2023-05-07T08:39:07;97669.69;;;17.37;64.64
77431;BME280;66498;48.564;19.272;2023-05-07T08:41:32;97670.59;;;17.78;62.77
77431;BME280;66498;48.564;19.272;2023-05-07T08:43:59;97667.41;;;17.96;63.31
77431;BME280;66498;48.564;19.272;2023-05-07T08:46:31;97667.63;;;17.74;65.13
77431;BME280;66498;48.564;19.272;2023-05-07T08:48:57;97660.75;;;18.35;62.60
77431;BME280;66498;48.564;19.272;2023-05-07T08:51:22;97660.03;;;19.04;60.03
77431;BME280;66498;48.564;19.272;2023-05-07T08:53:49;97659.03;;;18.85;61.52
77431;BME280;66498;48.564;19.272;2023-05-07T08:56:16;97658.78;;;18.86;58.96
77431;BME280;66498;48.564;19.272;2023-05-07T08:58:45;97658.47;;;19.03;54.30
77431;BME280;66498;48.564;19.272;2023-05-07T09:01:16;97660.16;;;18.79;60.22
77431;BME280;66498;48.564;19.272;2023-05-07T09:03:44;97653.97;;;18.99;58.75
77431;BME280;66498;48.564;19.272;2023-05-07T09:06:10;97657.13;;;19.55;54.76
77431;BME280;66498;48.564;19.272;2023-05-07T09:08:36;97661.81;;;18.24;59.87
77431;BME280;66498;48.564;19.272;2023-05-07T09:11:02;97650.78;;;18.91;57.32
77431;BME280;66498;48.564;19.272;2023-05-07T09:13:28;97648.81;;;19.23;55.19
77431;BME280;66498;48.564;19.272;2023-05-07T09:15:55;97647.44;;;18.55;59.41
77431;BME280;66498;48.564;19.272;2023-05-07T09:18:46;97655.09;;;18.82;59.22
77431;BME280;66498;48.564;19.272;2023-05-07T09:21:17;97648.50;;;18.49;58.84
77431;BME280;66498;48.564;19.272;2023-05-07T09:23:43;97651.84;;;18.90;57.40
77431;BME280;66498;48.564;19.272;2023-05-07T09:26:10;97640.78;;;18.48;54.38
77431;BME280;66498;48.564;19.272;2023-05-07T09:28:40;97646.59;;;18.65;52.75
77431;BME280;66498;48.564;19.272;2023-05-07T09:31:10;97641.03;;;18.72;51.79
77431;BME280;66498;48.564;19.272;2023-05-07T09:33:37;97643.69;;;18.61;54.37
77431;BME280;66498;48.564;19.272;2023-05-07T09:36:08;97638.69;;;19.20;51.54
77431;BME280;66498;48.564;19.272;2023-05-07T09:38:35;97637.91;;;19.19;51.23
77431;BME280;66498;48.564;19.272;2023-05-07T09:41:08;97636.56;;;18.41;51.75
77431;BME280;66498;48.564;19.272;2023-05-07T09:44:15;97633.97;;;19.06;54.85
77431;BME280;66498;48.564;19.272;2023-05-07T09:46:43;97638.06;;;19.38;52.12
77431;BME280;66498;48.564;19.272;2023-05-07T09:49:23;97637.09;;;19.24;53.08
77431;BME280;66498;48.564;19.272;2023-05-07T09:51:51;97633.50;;;19.44;51.99
77431;BME280;66498;48.564;19.272;2023-05-07T09:54:18;97629.59;;;19.31;50.23
77431;BME280;66498;48.564;19.272;2023-05-07T09:56:47;97625.59;;;19.73;50.09
77431;BME280;66498;48.564;19.272;2023-05-07T09:59:15;97621.97;;;19.64;53.29
77431;BME280;66498;48.564;19.272;2023-05-07T10:01:44;97630.38;;;20.39;50.90
77431;BME280;66498;48.564;19.272;2023-05-07T10:04:11;97618.59;;;20.93;51.42
77431;BME280;66498;48.564;19.272;2023-05-07T10:06:40;97617.25;;;21.71;47.35
77431;BME280;66498;48.564;19.272;2023-05-07T10:09:07;97618.88;;;21.30;46.86
77431;BME280;66498;48.564;19.272;2023-05-07T10:11:36;97614.78;;;20.99;49.93
77431;BME280;66498;48.564;19.272;2023-05-07T10:14:03;97603.44;;;21.08;44.69
77431;BME280;66498;48.564;19.272;2023-05-07T10:16:32;97603.16;;;21.09;42.89
77431;BME280;66498;48.564;19.272;2023-05-07T10:19:05;97605.97;;;21.18;42.59
77431;BME280;66498;48.564;19.272;2023-05-07T10:21:35;97594.59;;;20.69;41.50
77431;BME280;66498;48.564;19.272;2023-05-07T10:24:09;97602.00;;;20.48;43.05
77431;BME280;66498;48.564;19.272;2023-05-07T10:26:45;97604.00;;;20.08;43.08
77431;BME280;66498;48.564;19.272;2023-05-07T10:29:23;97595.50;;;20.30;40.67
77431;BME280;66498;48.564;19.272;2023-05-07T10:32:40;97584.47;;;20.18;42.28
77431;BME280;66498;48.564;19.272;2023-05-07T10:35:26;97594.81;;;20.20;40.52
77431;BME280;66498;48.564;19.272;2023-05-07T10:37:52;97580.72;;;20.19;40.07
77431;BME280;66498;48.564;19.272;2023-05-07T10:40:20;97583.81;;;20.55;40.65
77431;BME280;66498;48.564;19.272;2023-05-07T10:43:00;97577.03;;;20.15;39.62
77431;BME280;66498;48.564;19.272;2023-05-07T10:45:27;97585.34;;;20.08;41.74
77431;BME280;66498;48.564;19.272;2023-05-07T10:48:12;97588.59;;;20.29;41.69
77431;BME280;66498;48.564;19.272;2023-05-07T10:50:42;97583.94;;;20.40;38.92
77431;BME280;66498;48.564;19.272;2023-05-07T10:55:51;97579.06;;;20.23;38.59
77431;BME280;66498;48.564;19.272;2023-05-07T10:58:32;97571.84;;;20.48;39.08
77431;BME280;66498;48.564;19.272;2023-05-07T11:01:01;97575.44;;;19.85;38.66
77431;BME280;66498;48.564;19.272;2023-05-07T11:03:28;97581.78;;;20.18;39.69
77431;BME280;66498;48.564;19.272;2023-05-07T11:06:14;97587.66;;;20.68;39.41
77431;BME280;66498;48.564;19.272;2023-05-07T11:11:19;97580.16;;;20.70;40.32
77431;BME280;66498;48.564;19.272;2023-05-07T11:13:45;97588.91;;;20.76;38.76
77431;BME280;66498;48.564;19.272;2023-05-07T11:16:18;97586.75;;;20.54;38.97
77431;BME280;66498;48.564;19.272;2023-05-07T11:18:51;97587.66;;;20.68;38.87
77431;BME280;66498;48.564;19.272;2023-05-07T11:24:06;97595.94;;;20.43;37.25
77431;BME280;66498;48.564;19.272;2023-05-07T11:27:01;97584.94;;;20.49;38.35
77431;BME280;66498;48.564;19.272;2023-05-07T11:29:27;97597.38;;;20.83;38.17
77431;BME280;66498;48.564;19.272;2023-05-07T11:31:54;97587.03;;;20.76;37.41
77431;BME280;66498;48.564;19.272;2023-05-07T11:34:25;97587.13;;;20.90;39.61
77431;BME280;66498;48.564;19.272;2023-05-07T11:36:53;97591.19;;;21.07;37.61
77431;BME280;66498;48.564;19.272;2023-05-07T11:39:32;97595.38;;;20.70;37.86
77431;BME280;66498;48.564;19.272;2023-05-07T11:42:00;97590.78;;;20.75;37.95
77431;BME280;66498;48.564;19.272;2023-05-07T11:44:45;97587.66;;;20.92;39.17
77431;BME280;66498;48.564;19.272;2023-05-07T11:51:18;97577.34;;;21.05;35.24
77431;BME280;66498;48.564;19.272;2023-05-07T11:57:21;97577.41;;;21.18;37.09
77431;BME280;66498;48.564;19.272;2023-05-07T12:04:08;97580.50;;;21.25;34.05
77431;BME280;66498;48.564;19.272;2023-05-07T12:07:32;97588.41;;;20.74;35.77
77431;BME280;66498;48.564;19.272;2023-05-07T12:14:15;97577.03;;;20.87;36.11
77431;BME280;66498;48.564;19.272;2023-05-07T12:24:05;97572.94;;;21.70;33.71
77431;BME280;66498;48.564;19.272;2023-05-07T12:33:26;97574.31;;;21.30;35.34
77431;BME280;66498;48.564;19.272;2023-05-07T12:35:55;97571.06;;;21.85;35.05
77431;BME280;66498;48.564;19.272;2023-05-07T12:38:21;97555.81;;;21.53;33.67
77431;BME280;66498;48.564;19.272;2023-05-07T12:40:49;97565.81;;;21.47;34.40
77431;BME280;66498;48.564;19.272;2023-05-07T12:43:26;97565.41;;;21.16;34.15
77431;BME280;66498;48.564;19.272;2023-05-07T12:45:59;97553.69;;;21.36;33.76
77431;BME280;66498;48.564;19.272;2023-05-07T12:48:25;97560.09;;;21.86;34.62
77431;BME280;66498;48.564;19.272;2023-05-07T12:50:59;97564.56;;;21.58;32.83
77431;BME280;66498;48.564;19.272;2023-05-07T12:53:31;97571.00;;;21.57;32.86
77431;BME280;66498;48.564;19.272;2023-05-07T12:55:58;97563.47;;;21.59;33.72
77431;BME280;66498;48.564;19.272;2023-05-07T12:58:28;97577.34;;;21.61;34.58
77431;BME280;66498;48.564;19.272;2023-05-07T13:00:55;97553.72;;;21.49;33.35
77431;BME280;66498;48.564;19.272;2023-05-07T13:03:34;97559.34;;;21.67;33.43
77431;BME280;66498;48.564;19.272;2023-05-07T13:06:05;97552.78;;;21.59;32.32
77431;BME280;66498;48.564;19.272;2023-05-07T13:08:36;97550.94;;;21.73;33.78
77431;BME280;66498;48.564;19.272;2023-05-07T13:11:09;97547.84;;;21.66;33.75
77431;BME280;66498;48.564;19.272;2023-05-07T13:13:37;97551.38;;;21.48;33.68
77431;BME280;66498;48.564;19.272;2023-05-07T13:16:05;97549.44;;;21.35;34.11
77431;BME280;66498;48.564;19.272;2023-05-07T13:18:32;97542.97;;;21.55;33.90
77431;BME280;66498;48.564;19.272;2023-05-07T13:20:58;97547.59;;;21.49;34.02
77431;BME280;66498;48.564;19.272;2023-05-07T13:23:24;97536.84;;;21.54;33.50
77431;BME280;66498;48.564;19.272;2023-05-07T13:25:50;97547.19;;;21.23;34.01
77431;BME280;66498;48.564;19.272;2023-05-07T13:28:16;97542.69;;;21.56;33.52
77431;BME280;66498;48.564;19.272;2023-05-07T13:30:42;97543.31;;;21.67;34.11
77431;BME280;66498;48.564;19.272;2023-05-07T13:33:08;97542.19;;;21.54;32.05
77431;BME280;66498;48.564;19.272;2023-05-07T13:35:33;97537.25;;;21.10;31.88
77431;BME280;66498;48.564;19.272;2023-05-07T13:37:59;97537.00;;;21.25;33.44
77431;BME280;66498;48.564;19.272;2023-05-07T13:40:25;97525.31;;;21.02;33.23
77431;BME280;66498;48.564;19.272;2023-05-07T13:42:50;97523.88;;;21.29;34.36
77431;BME280;66498;48.564;19.272;2023-05-07T13:45:18;97518.97;;;21.36;33.37
77431;BME280;66498;48.564;19.272;2023-05-07T13:47:43;97526.91;;;21.73;35.05
77431;BME280;66498;48.564;19.272;2023-05-07T13:50:10;97516.91;;;21.65;33.53
77431;BME280;66498;48.564;19.272;2023-05-07T13:52:37;97507.56;;;21.30;32.13
77431;BME280;66498;48.564;19.272;2023-05-07T13:55:03;97514.59;;;21.59;33.94
77431;BME280;66498;48.564;19.272;2023-05-07T13:57:29;97511.03;;;21.63;33.38
77431;BME280;66498;48.564;19.272;2023-05-07T13:59:54;97517.53;;;21.43;33.44